createdAt,value
2023-03-02T00:01:10.610Z,5.10
2023-03-02T00:03:41.126Z,4.45
2023-03-02T00:06:09.998Z,4.60
2023-03-02T00:08:38.571Z,4.80
2023-03-02T00:11:05.902Z,4.65
2023-03-02T00:13:36.139Z,4.85
2023-03-02T00:16:03.533Z,4.68
2023-03-02T00:18:30.630Z,4.72
2023-03-02T00:20:57.679Z,4.60
2023-03-02T00:23:25.015Z,4.85
2023-03-02T00:25:52.330Z,4.45
2023-03-02T00:28:19.502Z,4.43
2023-03-02T00:30:46.720Z,4.38
2023-03-02T00:33:14.016Z,4.63
2023-03-02T00:35:42.021Z,5.10
2023-03-02T00:38:09.247Z,5.30
2023-03-02T00:40:36.968Z,4.97
2023-03-02T00:43:04.394Z,5.03
2023-03-02T00:45:31.702Z,5.05
2023-03-02T00:47:58.847Z,4.97
2023-03-02T00:50:26.284Z,4.63
2023-03-02T00:52:53.581Z,4.53
2023-03-02T00:55:21.068Z,4.68
2023-03-02T00:57:55.162Z,4.75
2023-03-02T01:02:51.192Z,4.32
2023-03-02T01:05:18.479Z,4.57
2023-03-02T01:07:45.765Z,4.25
2023-03-02T01:10:13.577Z,5.03
2023-03-02T01:12:40.999Z,6.15
2023-03-02T01:15:10.601Z,5.35
2023-03-02T01:17:37.805Z,4.68
2023-03-02T01:20:05.959Z,4.60
2023-03-02T01:22:33.133Z,5.13
2023-03-02T01:25:00.424Z,4.90
2023-03-02T01:27:27.573Z,4.47
2023-03-02T01:29:54.980Z,5.00
2023-03-02T01:32:22.324Z,5.05
2023-03-02T01:34:49.496Z,4.72
2023-03-02T01:37:16.660Z,4.60
2023-03-02T01:39:43.810Z,5.18
2023-03-02T01:42:10.989Z,4.90
2023-03-02T01:44:43.031Z,5.25
2023-03-02T01:47:35.381Z,4.68
2023-03-02T01:50:25.505Z,5.03
2023-03-02T01:52:54.920Z,4.63
2023-03-02T01:55:26.664Z,5.03
2023-03-02T01:57:55.840Z,4.75
2023-03-02T02:00:37.691Z,5.65
2023-03-02T02:03:22.296Z,5.20
2023-03-02T02:06:19.058Z,5.13
2023-03-02T02:08:47.696Z,4.45
2023-03-02T02:11:15.403Z,5.28
2023-03-02T02:13:43.722Z,4.70
2023-03-02T02:16:10.966Z,4.88
2023-03-02T02:18:41.228Z,4.88
2023-03-02T02:21:09.324Z,4.40
2023-03-02T02:23:48.746Z,5.25
2023-03-02T02:26:23.680Z,5.38
2023-03-02T02:29:02.604Z,5.32
2023-03-02T02:31:42.978Z,4.57
2023-03-02T02:34:13.197Z,5.13
2023-03-02T02:36:45.387Z,5.35
2023-03-02T02:39:29.326Z,4.78
2023-03-02T02:42:00.969Z,5.28
2023-03-02T02:44:28.281Z,4.70
2023-03-02T02:46:55.543Z,4.70
2023-03-02T02:49:31.371Z,4.55
2023-03-02T02:51:59.765Z,5.03
2023-03-02T02:54:28.274Z,4.85
2023-03-02T02:56:57.251Z,4.90
2023-03-02T02:59:31.686Z,4.95
2023-03-02T03:01:59.991Z,4.30
2023-03-02T03:04:32.725Z,4.63
2023-03-02T03:07:02.826Z,5.25
2023-03-02T03:09:31.195Z,5.55
2023-03-02T03:12:01.044Z,4.80
2023-03-02T03:14:47.444Z,4.53
2023-03-02T03:17:14.497Z,5.38
2023-03-02T03:19:44.556Z,5.07
2023-03-02T03:22:14.628Z,4.82
2023-03-02T03:24:43.513Z,4.65
2023-03-02T03:27:13.964Z,4.82
2023-03-02T03:29:44.352Z,4.55
2023-03-02T03:32:11.661Z,4.13
2023-03-02T03:34:41.096Z,4.85
2023-03-02T03:37:10.988Z,4.60
2023-03-02T03:39:38.653Z,5.28
2023-03-02T03:42:06.339Z,4.78
2023-03-02T03:44:34.602Z,4.35
2023-03-02T03:47:02.435Z,4.55
2023-03-02T03:49:29.851Z,5.50
2023-03-02T03:51:57.084Z,4.95
2023-03-02T03:54:24.509Z,5.13
2023-03-02T03:56:51.756Z,4.85
2023-03-02T03:59:22.298Z,4.75
2023-03-02T04:01:56.580Z,4.80
2023-03-02T04:04:27.648Z,4.60
2023-03-02T04:06:55.544Z,4.72
2023-03-02T04:09:24.326Z,5.15
2023-03-02T04:11:54.053Z,5.03
2023-03-02T04:14:23.213Z,4.55
2023-03-02T04:16:50.636Z,4.70
2023-03-02T04:19:18.222Z,5.63
2023-03-02T04:21:48.908Z,5.30
2023-03-02T04:24:17.254Z,5.03
2023-03-02T04:26:45.488Z,4.65
2023-03-02T04:29:13.576Z,4.97
2023-03-02T04:31:41.725Z,4.32
2023-03-02T04:34:09.583Z,4.55
2023-03-02T04:36:39.397Z,5.35
2023-03-02T04:39:07.709Z,4.95
2023-03-02T04:41:35.523Z,4.63
2023-03-02T04:44:03.075Z,4.57
2023-03-02T04:46:30.370Z,5.25
2023-03-02T04:48:57.585Z,4.93
2023-03-02T04:51:31.577Z,5.50
2023-03-02T04:54:02.380Z,5.53
2023-03-02T04:56:30.132Z,5.13
2023-03-02T04:58:57.961Z,4.90
2023-03-02T05:01:26.096Z,5.70
2023-03-02T05:03:53.452Z,5.07
2023-03-02T05:06:22.084Z,4.78
2023-03-02T05:08:49.649Z,5.13
2023-03-02T05:11:26.147Z,4.55
2023-03-02T05:13:55.927Z,5.10
2023-03-02T05:16:25.091Z,4.95
2023-03-02T05:18:52.445Z,5.20
2023-03-02T05:21:19.926Z,4.88
2023-03-02T05:23:47.376Z,5.78
2023-03-02T05:26:15.355Z,4.85
2023-03-02T05:28:43.372Z,5.10
2023-03-02T05:31:21.063Z,5.03
2023-03-02T05:33:48.449Z,5.45
2023-03-02T05:36:18.918Z,5.13
2023-03-02T05:38:46.812Z,5.45
2023-03-02T05:41:14.097Z,5.63
2023-03-02T05:43:41.359Z,5.38
2023-03-02T05:46:08.589Z,5.50
2023-03-02T05:48:35.970Z,5.32
2023-03-02T05:51:03.130Z,5.10
2023-03-02T05:53:30.413Z,5.75
2023-03-02T05:55:57.779Z,5.28
2023-03-02T05:58:25.078Z,4.43
2023-03-02T06:00:52.390Z,5.18
2023-03-02T06:03:19.973Z,5.10
2023-03-02T06:05:51.150Z,5.22
2023-03-02T06:08:20.139Z,4.95
2023-03-02T06:10:47.698Z,5.72
2023-03-02T06:13:16.005Z,5.82
2023-03-02T06:15:43.434Z,5.50
2023-03-02T06:18:12.808Z,5.43
2023-03-02T06:20:40.738Z,5.22
2023-03-02T06:23:08.134Z,5.07
2023-03-02T06:25:37.309Z,6.05
2023-03-02T06:28:04.715Z,5.57
2023-03-02T06:30:31.932Z,5.03
2023-03-02T06:33:00.186Z,5.53
2023-03-02T06:35:27.547Z,5.47
2023-03-02T06:37:54.928Z,5.30
2023-03-02T06:40:22.249Z,5.82
2023-03-02T06:42:50.371Z,5.82
2023-03-02T06:45:17.894Z,5.75
2023-03-02T06:47:45.288Z,5.38
2023-03-02T06:50:12.640Z,5.57
2023-03-02T06:52:41.132Z,5.10
2023-03-02T06:55:10.965Z,5.10
2023-03-02T06:57:38.301Z,6.05
2023-03-02T07:00:25.862Z,6.05
2023-03-02T07:02:54.810Z,5.40
2023-03-02T07:05:23.820Z,5.88
2023-03-02T07:07:51.777Z,5.90
2023-03-02T07:10:19.237Z,8.55
2023-03-02T07:12:46.611Z,5.78
2023-03-02T07:15:14.622Z,5.80
2023-03-02T07:17:44.222Z,5.88
2023-03-02T07:20:14.468Z,5.45
2023-03-02T07:22:42.508Z,5.88
2023-03-02T07:25:10.951Z,6.40
2023-03-02T07:27:38.483Z,6.47
2023-03-02T07:30:07.240Z,5.72
2023-03-02T07:32:34.900Z,7.03
2023-03-02T07:35:02.187Z,5.82
2023-03-02T07:37:29.743Z,5.25
2023-03-02T07:39:58.697Z,5.97
2023-03-02T07:42:26.805Z,6.30
2023-03-02T07:44:54.502Z,5.97
2023-03-02T07:47:23.007Z,5.75
2023-03-02T07:49:50.393Z,6.35
2023-03-02T07:52:17.695Z,5.88
2023-03-02T07:54:44.986Z,6.15
2023-03-02T07:57:14.144Z,6.47
2023-03-02T07:59:41.476Z,6.63
2023-03-02T08:02:15.100Z,6.07
2023-03-02T08:04:42.536Z,6.22
2023-03-02T08:07:10.194Z,6.60
2023-03-02T08:09:40.124Z,6.18
2023-03-02T08:12:07.396Z,6.43
2023-03-02T08:14:35.845Z,5.97
2023-03-02T08:17:05.463Z,6.38
2023-03-02T08:19:32.857Z,5.55
2023-03-02T08:22:01.034Z,6.90
2023-03-02T08:24:28.420Z,6.55
2023-03-02T08:26:56.338Z,6.60
2023-03-02T08:29:27.518Z,6.68
2023-03-02T08:31:55.055Z,5.78
2023-03-02T08:34:22.454Z,6.65
2023-03-02T08:36:49.641Z,6.47
2023-03-02T08:39:16.865Z,6.20
2023-03-02T08:41:44.236Z,6.85
2023-03-02T08:44:11.583Z,7.05
2023-03-02T08:46:38.785Z,6.00
2023-03-02T08:49:06.128Z,5.85
2023-03-02T08:51:33.797Z,6.50
2023-03-02T08:54:01.535Z,6.55
2023-03-02T08:56:32.255Z,6.22
2023-03-02T08:59:03.165Z,6.93
2023-03-02T09:01:34.054Z,7.57
2023-03-02T09:04:02.681Z,6.15
2023-03-02T09:06:32.269Z,6.65
2023-03-02T09:08:59.567Z,6.80
2023-03-02T09:11:26.966Z,7.13
2023-03-02T09:13:55.149Z,6.75
2023-03-02T09:16:24.500Z,6.55
2023-03-02T09:18:51.855Z,7.30
2023-03-02T09:21:19.336Z,6.40
2023-03-02T09:23:47.536Z,6.75
2023-03-02T09:26:14.791Z,6.55
2023-03-02T09:28:42.038Z,6.00
2023-03-02T09:31:09.509Z,6.35
2023-03-02T09:33:37.154Z,6.05
2023-03-02T09:36:09.547Z,6.80
2023-03-02T09:38:36.814Z,6.30
2023-03-02T09:41:31.328Z,6.63
2023-03-02T09:44:30.256Z,6.68
2023-03-02T09:47:05.145Z,6.63
2023-03-02T09:49:57.252Z,6.65
2023-03-02T09:52:47.114Z,6.63
2023-03-02T09:55:25.848Z,6.60
2023-03-02T09:57:55.141Z,6.13
2023-03-02T10:00:30.906Z,6.30
2023-03-02T10:03:17.943Z,6.65
2023-03-02T10:05:46.455Z,6.85
2023-03-02T10:08:27.422Z,6.38
2023-03-02T10:10:54.634Z,5.88
2023-03-02T10:13:47.644Z,6.00
2023-03-02T10:16:49.579Z,6.57
2023-03-02T10:19:41.903Z,6.05
2023-03-02T10:22:29.296Z,6.43
2023-03-02T10:25:24.424Z,6.40
2023-03-02T10:27:57.922Z,5.28
2023-03-02T10:30:36.944Z,6.53
2023-03-02T10:33:19.838Z,5.95
2023-03-02T10:35:50.517Z,5.25
2023-03-02T10:38:23.443Z,6.13
2023-03-02T10:41:03.072Z,6.15
2023-03-02T10:43:44.258Z,5.18
2023-03-02T10:46:13.466Z,5.55
2023-03-02T10:48:51.282Z,4.93
2023-03-02T10:51:27.965Z,5.22
2023-03-02T10:54:11.863Z,5.15
2023-03-02T10:56:42.929Z,4.82
2023-03-02T10:59:26.362Z,4.82
2023-03-02T11:02:25.586Z,4.85
2023-03-02T11:05:18.488Z,4.70
2023-03-02T11:07:58.658Z,4.40
2023-03-02T11:10:36.475Z,3.88
2023-03-02T11:13:17.360Z,3.58
2023-03-02T11:15:50.429Z,4.32
2023-03-02T11:18:38.462Z,4.00
2023-03-02T11:21:13.371Z,3.78
2023-03-02T11:24:10.342Z,3.95
2023-03-02T11:27:00.023Z,3.30
2023-03-02T11:29:41.939Z,3.55
2023-03-02T11:32:09.245Z,3.55
2023-03-02T11:34:41.446Z,3.70
2023-03-02T11:37:20.485Z,3.47
2023-03-02T11:39:55.593Z,3.72
2023-03-02T11:42:30.863Z,3.28
2023-03-02T11:45:01.909Z,3.75
2023-03-02T11:47:31.871Z,3.17
2023-03-02T11:50:05.503Z,3.17
2023-03-02T11:52:38.044Z,3.58
2023-03-02T11:55:28.957Z,3.70
2023-03-02T12:00:43.278Z,4.00
2023-03-02T12:03:16.351Z,3.97
2023-03-02T12:05:46.445Z,3.90
2023-03-02T12:08:19.947Z,3.60
2023-03-02T12:11:04.144Z,3.83
2023-03-02T12:13:33.007Z,4.50
2023-03-02T12:16:02.216Z,4.32
2023-03-02T12:18:40.719Z,4.35
2023-03-02T12:21:11.875Z,4.45
2023-03-02T12:23:56.194Z,3.60
2023-03-02T12:26:37.576Z,3.47
2023-03-02T12:29:10.075Z,4.15
2023-03-02T12:31:40.290Z,3.90
2023-03-02T12:34:24.553Z,4.20
2023-03-02T12:37:00.381Z,4.25
2023-03-02T12:40:03.336Z,3.40
2023-03-02T12:42:48.857Z,3.60
2023-03-02T12:45:41.986Z,3.55
2023-03-02T12:48:24.371Z,3.70
2023-03-02T12:50:56.478Z,3.47
2023-03-02T12:53:23.699Z,2.70
2023-03-02T12:55:51.056Z,3.05
2023-03-02T12:58:24.562Z,3.28
2023-03-02T13:00:57.755Z,2.70
2023-03-02T13:03:26.718Z,3.20
2023-03-02T13:06:04.962Z,3.30
2023-03-02T13:08:32.809Z,3.08
2023-03-02T13:11:02.411Z,2.97
2023-03-02T13:13:40.011Z,3.13
2023-03-02T13:16:23.490Z,2.85
2023-03-02T13:18:57.006Z,2.72
2023-03-02T13:21:38.395Z,2.50
2023-03-02T13:24:26.901Z,3.50
2023-03-02T13:27:05.118Z,2.53
2023-03-02T13:29:33.946Z,2.42
2023-03-02T13:32:20.744Z,3.10
2023-03-02T13:34:57.696Z,4.18
2023-03-02T13:37:27.962Z,3.20
2023-03-02T13:39:57.799Z,4.35
2023-03-02T13:42:41.579Z,4.45
2023-03-02T13:45:23.386Z,5.07
2023-03-02T13:47:50.918Z,4.05
2023-03-02T13:50:26.661Z,4.38
2023-03-02T13:52:57.562Z,3.63
2023-03-02T13:55:25.172Z,3.00
2023-03-02T13:57:53.899Z,2.30
2023-03-02T14:00:33.251Z,2.30
2023-03-02T14:03:01.692Z,2.60
2023-03-02T14:05:35.661Z,4.22
2023-03-02T14:08:03.130Z,4.32
2023-03-02T14:10:33.463Z,4.65
2023-03-02T14:13:31.104Z,4.43
2023-03-02T14:15:58.306Z,4.90
2023-03-02T14:18:47.453Z,5.13
2023-03-02T14:21:20.778Z,4.68
2023-03-02T14:23:48.427Z,4.77
2023-03-02T14:26:36.214Z,5.13
2023-03-02T14:29:27.690Z,4.60
2023-03-02T14:32:00.749Z,5.18
2023-03-02T14:34:27.940Z,4.43
2023-03-02T14:36:58.390Z,4.72
2023-03-02T14:39:38.663Z,4.20
2023-03-02T14:42:11.170Z,4.38
2023-03-02T14:44:38.254Z,3.95
2023-03-02T14:47:05.669Z,4.25
2023-03-02T14:49:38.724Z,4.20
2023-03-02T14:52:08.916Z,4.30
2023-03-02T14:54:46.644Z,4.38
2023-03-02T14:57:22.593Z,4.28
2023-03-02T14:59:49.838Z,4.32
2023-03-02T15:02:25.324Z,4.50
2023-03-02T15:04:56.531Z,3.97
2023-03-02T15:07:26.015Z,4.10
2023-03-02T15:09:54.892Z,3.83
2023-03-02T15:12:22.184Z,4.07
2023-03-02T15:14:49.541Z,4.32
2023-03-02T15:17:17.789Z,4.32
2023-03-02T15:19:45.091Z,4.47
2023-03-02T15:22:16.332Z,3.80
2023-03-02T15:24:43.825Z,4.30
2023-03-02T15:27:11.166Z,4.45
2023-03-02T15:29:38.559Z,4.20
2023-03-02T15:32:06.402Z,4.05
2023-03-02T15:34:33.773Z,4.60
2023-03-02T15:37:01.113Z,4.85
2023-03-02T15:39:28.464Z,5.38
2023-03-02T15:41:56.560Z,4.43
2023-03-02T15:44:25.001Z,3.78
2023-03-02T15:46:57.078Z,4.95
2023-03-02T15:49:29.697Z,4.60
2023-03-02T15:52:00.675Z,4.57
2023-03-02T15:54:28.898Z,3.83
2023-03-02T15:56:56.896Z,3.78
2023-03-02T15:59:26.839Z,4.38
2023-03-02T16:01:55.481Z,3.85
2023-03-02T16:04:22.951Z,3.65
2023-03-02T16:06:50.319Z,3.17
2023-03-02T16:09:17.653Z,4.05
2023-03-02T16:11:45.071Z,4.05
2023-03-02T16:14:15.940Z,3.47
2023-03-02T16:16:44.552Z,4.32
2023-03-02T16:19:14.227Z,3.20
2023-03-02T16:21:41.735Z,3.83
2023-03-02T16:24:13.727Z,3.78
2023-03-02T16:26:41.331Z,3.58
2023-03-02T16:29:08.642Z,3.95
2023-03-02T16:31:38.180Z,3.47
2023-03-02T16:34:09.081Z,3.80
2023-03-02T16:36:38.321Z,3.67
2023-03-02T16:39:06.624Z,3.95
2023-03-02T16:41:35.848Z,3.35
2023-03-02T16:44:03.418Z,4.00
2023-03-02T16:46:36.486Z,4.13
2023-03-02T16:49:05.778Z,4.00
2023-03-02T16:51:33.886Z,5.07
2023-03-02T16:54:01.197Z,7.15
2023-03-02T16:56:28.683Z,6.63
2023-03-02T16:58:56.927Z,5.90
2023-03-02T17:01:25.225Z,4.30
2023-03-02T17:03:52.794Z,3.90
2023-03-02T17:06:22.601Z,3.90
2023-03-02T17:08:51.009Z,4.30
2023-03-02T17:11:19.205Z,4.60
2023-03-02T17:13:46.789Z,4.10
2023-03-02T17:16:14.444Z,4.80
2023-03-02T17:18:42.055Z,5.45
2023-03-02T17:21:09.412Z,5.03
2023-03-02T17:23:38.107Z,5.60
2023-03-02T17:26:05.917Z,4.00
2023-03-02T17:28:33.365Z,4.38
2023-03-02T17:31:02.390Z,4.45
2023-03-02T17:33:34.749Z,4.10
2023-03-02T17:36:12.230Z,4.45
2023-03-02T17:38:44.063Z,4.50
2023-03-02T17:41:15.795Z,4.40
2023-03-02T17:43:48.195Z,4.10
2023-03-02T17:46:20.823Z,4.38
2023-03-02T17:48:51.873Z,3.97
2023-03-02T17:51:21.723Z,4.60
2023-03-02T17:53:50.985Z,4.05
2023-03-02T17:56:31.674Z,4.28
2023-03-02T17:59:07.047Z,4.60
2023-03-02T18:01:38.124Z,4.70
2023-03-02T18:04:06.104Z,4.60
2023-03-02T18:06:34.421Z,4.25
2023-03-02T18:09:12.431Z,20.00
2023-03-02T18:11:42.747Z,6.18
2023-03-02T18:14:15.649Z,6.65
2023-03-02T18:16:43.387Z,4.32
2023-03-02T18:19:11.152Z,4.57
2023-03-02T18:21:50.973Z,4.57
2023-03-02T18:24:25.690Z,4.20
2023-03-02T18:26:55.554Z,5.05
2023-03-02T18:29:23.264Z,3.92
2023-03-02T18:31:55.494Z,4.47
2023-03-02T18:34:25.982Z,4.63
2023-03-02T18:36:58.206Z,4.15
2023-03-02T18:39:31.070Z,4.30
2023-03-02T18:41:58.709Z,5.00
2023-03-02T18:44:28.456Z,4.07
2023-03-02T18:47:01.125Z,4.10
2023-03-02T18:49:31.536Z,4.28
2023-03-02T18:52:06.980Z,4.15
2023-03-02T18:54:37.319Z,4.63
2023-03-02T18:57:07.788Z,4.53
2023-03-02T18:59:36.030Z,4.22
2023-03-02T19:02:11.041Z,4.55
2023-03-02T19:04:46.023Z,4.68
2023-03-02T19:07:14.527Z,4.20
2023-03-02T19:09:42.157Z,4.50
2023-03-02T19:12:12.145Z,4.40
2023-03-02T19:14:39.927Z,4.28
2023-03-02T19:17:07.613Z,4.75
2023-03-02T19:19:37.582Z,4.72
2023-03-02T19:22:11.072Z,4.90
2023-03-02T19:24:38.694Z,4.78
2023-03-02T19:27:18.319Z,4.97
2023-03-02T19:29:48.782Z,4.75
2023-03-02T19:32:16.589Z,4.88
2023-03-02T19:34:47.997Z,4.78
2023-03-02T19:37:16.084Z,4.65
2023-03-02T19:39:43.920Z,5.10
2023-03-02T19:42:16.634Z,4.40
2023-03-02T19:44:44.224Z,4.82
2023-03-02T19:47:11.935Z,4.75
2023-03-02T19:49:39.276Z,5.13
2023-03-02T19:52:09.730Z,5.55
2023-03-02T19:54:43.312Z,5.35
2023-03-02T19:57:14.094Z,6.10
2023-03-02T19:59:41.732Z,5.68
2023-03-02T20:02:09.439Z,6.05
2023-03-02T20:04:42.873Z,6.10
2023-03-02T20:07:11.157Z,6.20
2023-03-02T20:09:39.003Z,6.45
2023-03-02T20:12:08.579Z,6.70
2023-03-02T20:14:37.040Z,6.85
2023-03-02T20:17:05.076Z,6.10
2023-03-02T20:19:32.518Z,7.05
2023-03-02T20:21:59.654Z,6.65
2023-03-02T20:24:29.548Z,7.22
2023-03-02T20:26:56.897Z,7.43
2023-03-02T20:29:24.403Z,7.88
2023-03-02T20:31:54.767Z,8.20
2023-03-02T20:34:22.603Z,7.97
2023-03-02T20:36:50.347Z,8.13
2023-03-02T20:39:25.447Z,8.43
2023-03-02T20:41:52.965Z,8.70
2023-03-02T20:44:21.313Z,8.40
2023-03-02T20:46:55.821Z,8.98
2023-03-02T20:49:28.814Z,9.18
2023-03-02T20:52:00.819Z,10.15
2023-03-02T20:54:32.002Z,10.35
2023-03-02T20:57:02.198Z,9.93
2023-03-02T20:59:30.171Z,10.20
2023-03-02T21:01:57.954Z,10.90
2023-03-02T21:04:25.650Z,10.68
2023-03-02T21:06:55.566Z,11.18
2023-03-02T21:09:23.920Z,11.00
2023-03-02T21:11:52.177Z,10.73
2023-03-02T21:14:19.804Z,12.23
2023-03-02T21:16:47.264Z,11.38
2023-03-02T21:19:18.722Z,11.48
2023-03-02T21:21:46.116Z,12.48
2023-03-02T21:24:18.900Z,11.82
2023-03-02T21:26:48.004Z,11.82
2023-03-02T21:29:16.830Z,12.57
2023-03-02T21:31:44.866Z,13.00
2023-03-02T21:34:13.605Z,11.05
2023-03-02T21:36:41.182Z,12.00
2023-03-02T21:39:10.278Z,11.52
2023-03-02T21:41:38.439Z,12.13
2023-03-02T21:44:06.236Z,11.13
2023-03-02T21:46:35.882Z,12.55
2023-03-02T21:49:04.064Z,11.75
2023-03-02T21:51:31.865Z,10.77
2023-03-02T21:53:59.122Z,12.38
2023-03-02T21:56:27.068Z,11.85
2023-03-02T21:58:56.750Z,11.98
2023-03-02T22:01:27.323Z,12.18
2023-03-02T22:03:54.629Z,12.15
2023-03-02T22:06:24.317Z,12.65
2023-03-02T22:08:52.328Z,13.10
2023-03-02T22:11:22.907Z,12.20
2023-03-02T22:13:57.870Z,12.40
2023-03-02T22:16:37.987Z,13.00
2023-03-02T22:19:22.926Z,11.50
2023-03-02T22:21:51.114Z,12.98
2023-03-02T22:24:21.364Z,11.23
2023-03-02T22:26:55.095Z,12.30
2023-03-02T22:29:30.204Z,12.65
2023-03-02T22:32:06.774Z,12.68
2023-03-02T22:34:36.875Z,12.55
2023-03-02T22:37:15.337Z,11.70
2023-03-02T22:39:42.631Z,12.45
2023-03-02T22:42:22.749Z,13.05
2023-03-02T22:45:13.064Z,12.32
2023-03-02T22:47:40.556Z,12.57
2023-03-02T22:50:25.372Z,12.35
2023-03-02T22:52:53.816Z,12.52
2023-03-02T22:55:41.198Z,12.93
2023-03-02T22:58:20.760Z,11.55
2023-03-02T23:00:48.658Z,11.18
2023-03-02T23:03:22.594Z,12.73
2023-03-02T23:05:53.258Z,13.10
2023-03-02T23:08:31.592Z,12.73
2023-03-02T23:10:59.584Z,14.15
2023-03-02T23:13:38.213Z,14.10
2023-03-02T23:16:20.167Z,13.57
2023-03-02T23:18:50.776Z,12.48
2023-03-02T23:21:23.180Z,13.18
2023-03-02T23:23:51.065Z,13.18
2023-03-02T23:26:19.860Z,14.30
2023-03-02T23:28:48.828Z,14.05
2023-03-02T23:31:18.619Z,13.98
2023-03-02T23:33:46.480Z,13.23
2023-03-02T23:36:14.515Z,13.77
2023-03-02T23:38:41.920Z,14.15
2023-03-02T23:41:11.106Z,14.20
2023-03-02T23:43:39.435Z,15.48
2023-03-02T23:46:06.730Z,15.55
2023-03-02T23:48:34.807Z,14.02
2023-03-02T23:51:02.219Z,16.73
2023-03-02T23:53:29.341Z,15.43
2023-03-02T23:55:56.461Z,16.77
2023-03-02T23:58:24.283Z,16.02
